Jackson (JAN/KJAN)

Map

Destinations

Information

Location
Jackson, Mississippi
Local Time
12:37 / 12:37 pm
GMT Time
18:37 / 6:37 pm
Gates
Unassigned
No FAA reported delays
METAR KJAN 191754Z 00000KT 10SM FEW040 24/14 A3009 RMK AO2 SLP187 T02390144 10244 20089 58005
TAF KJAN 191724Z 1918/2018 12005KT P6SM SKC
  • No charts available